Aeroporto :
LOGIN :

Iscrizione | Disclaimer

   EN    FR    IT 

 










Sommario :    VFR   VFR Marginale   IFR   IFR Intensivo   IFR Molto Intensivo
Visibilità : 
Base nubi : 
>= 8 km
>= 3000ft
5 / 8 km
1000 / 3000 ft
1500m / 5 km
500 / 1000 ft
800 / 1500m
200 / 500 ft
< 800m
< 200 ft
Simboli :   Temporali  Nebbia  Neve Forte  Precipitazioni Forti  Vento > 20 kt
SIGMETs :   Varie  Temporali  Ghiacco  Turbolenza  Onda orograficha  Ceneri Vulcaniche







- Altitudine del aeroporto : 794 ft


LKCV - Čáslav Air Base

ULTIMO METAR :
  • 191900Z 34005KT 9999 FEW018 SCT037 21/17 Q1019 NOSIG RMK BLU BLU

METARs OBSOLETI :
  • 191800Z VRB02KT CAVOK 23/16 Q1018 NOSIG RMK BLU BLU
  • 191700Z 36004KT 290V040 CAVOK 24/16 Q1018 NOSIG RMK BLU BLU

TAF TAF LKCV
Valido dal 19 a 18 ore il 20 a 18 ore UTC


191700Z 1918/2018 VRB02KT CAVOK
PROB30
TEMPO 1918/2015 7000 SHRA BKN030
BECMG 2008/2010 32006KT
TEMPO 2015/2018 7000 RA BKN025
PROB40
TEMPO 2015/2018 32016G26KT 4000 TSRA BKN025CB
Nessun NOTAM noto per questo aeroporto.



MetMap, La meteo Aeronautica in un colpo d'occhio ! - Copyright ORBIFLY Dicembre 2007 - Disclaimer

ORBIFLY MET'MAP TEAM :

Programmazione e sviluppo : Alexandra Zaïnal
Concezione e sviluppo : Baudouin d'Aumeries
Co-Programmazione e sviluppo : Marc-Olivier Méhu
Supporto tecnico e logistico : Manuel Goepfert
Aiuto per la traduzione : Arnaldo La Scala

Contatto : metmap@orbifly.com




FONTI E CREDITI :

   NOAA